Time;durP1;ratioP1;P1;durP2;ratioP2;P2;SDS_P1;SDS_P2;PMS_P1;PMS_P2;Temp;Humidity;BMP_temperature;BMP_pressure;BME280_temperature;BME280_humidity;BME280_pressure;Samples;Min_cycle;Max_cycle;Signal;HPM_P1;HPM_P2
2022/12/21 06:17:12;;;;;;;;;;;;;;;11.25;72.28;96990.72;4240930;27;10180;-64
2022/12/21 06:19:15;;;;;;;;;;;;;;;11.55;71.32;96993.97;4234105;27;5637;-65
2022/12/21 06:21:18;;;;;;;;;;;;;;;11.78;70.93;96989.25;4232442;27;5697;-65
2022/12/21 06:23:21;;;;;;;;;;;;;;;11.96;70.76;96983.44;4233916;27;5853;-65
2022/12/21 06:25:24;;;;;;;;;;;;;;;12.11;70.24;96991.25;4216859;28;6431;-65
2022/12/21 06:27:27;;;;;;;;;;;;;;;12.22;70.01;96988.84;4222064;28;5769;-65
2022/12/21 06:29:29;;;;;;;;;;;;;;;12.34;69.91;96988.28;4223978;27;5823;-65
2022/12/21 06:31:32;;;;;;;;;;;;;;;12.41;69.90;96989.94;4224671;28;5851;-64
2022/12/21 06:33:37;;;;;;;;;;;;;;;12.47;69.55;96991.81;4219418;28;5722;-63
2022/12/21 06:35:40;;;;;;;;;;;;;;;12.54;69.08;96986.50;4230707;28;5613;-65
2022/12/21 06:37:43;;;;;;;;;;;;;;;12.61;69.37;96990.00;4218014;28;5830;-65
2022/12/21 06:39:45;;;;;;;;;;;;;;;12.64;69.06;96989.59;4224620;28;7220;-65
2022/12/21 06:41:48;;;;;;;;;;;;;;;12.70;68.82;96990.63;4222366;28;5738;-65
2022/12/21 06:43:51;;;;;;;;;;;;;;;12.72;69.08;96991.25;4231656;28;5616;-65
2022/12/21 06:45:55;;;;;;;;;;;;;;;12.76;68.74;97003.88;4228571;28;5092;-65
2022/12/21 06:47:58;;;;;;;;;;;;;;;12.78;68.60;97007.16;4221098;28;5625;-65
2022/12/21 06:50:03;;;;;;;;;;;;;;;12.80;68.86;97005.13;4220953;28;5633;-65
2022/12/21 06:52:05;;;;;;;;;;;;;;;12.81;68.40;97012.06;4247727;27;5593;-65
2022/12/21 06:54:11;;;;;;;;;;;;;;;12.83;68.61;97010.03;4214505;28;5651;-65
2022/12/21 06:56:16;;;;;;;;;;;;;;;12.86;68.25;97010.63;4215982;27;5759;-65
2022/12/21 06:58:22;;;;;;;;;;;;;;;12.87;68.16;97014.94;4225266;27;5826;-65
2022/12/21 07:00:25;;;;;;;;;;;;;;;12.88;68.05;97011.25;4230630;28;5620;-65
2022/12/21 07:02:27;;;;;;;;;;;;;;;12.87;68.14;97014.94;4230309;28;5803;-65
2022/12/21 07:04:30;;;;;;;;;;;;;;;12.87;68.41;97012.28;4225386;28;5621;-65
2022/12/21 07:06:34;;;;;;;;;;;;;;;12.86;68.26;97008.00;4224039;28;5601;-65
2022/12/21 07:08:37;;;;;;;;;;;;;;;12.86;67.91;97021.25;4214660;28;6453;-65
2022/12/21 07:10:40;;;;;;;;;;;;;;;12.85;67.95;97011.66;4223173;27;5610;-65
2022/12/21 07:12:44;;;;;;;;;;;;;;;12.83;68.19;97009.22;4237805;27;5593;-65
2022/12/21 07:14:47;;;;;;;;;;;;;;;12.83;67.93;97009.22;4220189;27;5609;-65
2022/12/21 07:16:50;;;;;;;;;;;;;;;12.83;68.28;97018.00;4223822;28;5617;-65
2022/12/21 07:18:54;;;;;;;;;;;;;;;12.85;68.16;97016.97;4217472;28;5613;-65
2022/12/21 07:20:57;;;;;;;;;;;;;;;12.82;67.93;97015.53;4217740;28;5620;-65
2022/12/21 07:23:01;;;;;;;;;;;;;;;12.82;67.91;97019.00;4217549;28;5637;-65
2022/12/21 07:25:05;;;;;;;;;;;;;;;12.81;68.05;97016.56;4216742;28;5624;-65
2022/12/21 07:27:08;;;;;;;;;;;;;;;12.82;68.14;97023.50;4213926;28;5617;-64
2022/12/21 07:29:12;;;;;;;;;;;;;;;12.81;68.13;97013.91;4214156;28;5621;-64
2022/12/21 07:31:17;;;;;;;;;;;;;;;12.81;68.07;97014.72;4211832;28;5722;-64
2022/12/21 07:33:20;;;;;;;;;;;;;;;12.81;68.01;97021.88;4233058;28;5598;-64
2022/12/21 07:35:24;;;;;;;;;;;;;;;12.81;67.76;97019.22;4223653;28;5634;-64
2022/12/21 07:37:27;;;;;;;;;;;;;;;12.81;67.67;97022.69;4214298;28;5801;-66
2022/12/21 07:39:31;;;;;;;;;;;;;;;12.82;67.98;97018.19;4208877;28;5609;-65
2022/12/21 07:41:34;;;;;;;;;;;;;;;12.83;67.73;97031.25;4219466;28;5684;-64
2022/12/21 07:43:37;;;;;;;;;;;;;;;12.87;67.76;97036.16;4211377;28;5825;-64
2022/12/21 07:45:40;;;;;;;;;;;;;;;12.89;67.53;97039.41;4219308;28;6486;-64
2022/12/21 07:47:43;;;;;;;;;;;;;;;12.89;67.45;97042.88;4229565;28;5606;-64
2022/12/21 07:49:46;;;;;;;;;;;;;;;12.89;67.66;97039.41;4225519;28;5706;-64
2022/12/21 07:51:51;;;;;;;;;;;;;;;12.90;67.36;97041.84;4202473;28;5686;-64
2022/12/21 07:53:53;;;;;;;;;;;;;;;12.92;67.26;97039.03;4202737;28;5804;-64
2022/12/21 07:56:00;;;;;;;;;;;;;;;12.89;67.18;97050.03;4219166;28;5720;-64
2022/12/21 07:58:03;;;;;;;;;;;;;;;12.89;67.27;97042.06;4202770;28;5698;-64
2022/12/21 08:00:09;;;;;;;;;;;;;;;12.90;67.36;97041.03;4235517;28;5594;-64
2022/12/21 08:02:11;;;;;;;;;;;;;;;12.91;67.38;97037.38;4236547;28;5586;-64
2022/12/21 08:04:14;;;;;;;;;;;;;;;12.93;67.27;97045.97;4236201;28;5594;-64
2022/12/21 08:06:17;;;;;;;;;;;;;;;12.93;67.26;97044.13;4216503;28;5826;-64
2022/12/21 08:08:20;;;;;;;;;;;;;;;12.96;67.05;97048.22;4218818;28;5598;-64
2022/12/21 08:10:23;;;;;;;;;;;;;;;12.95;67.29;97042.09;4219203;28;5594;-64
2022/12/21 08:12:27;;;;;;;;;;;;;;;12.97;67.24;97047.19;4202424;28;5769;-64
2022/12/21 08:14:30;;;;;;;;;;;;;;;12.99;66.94;97045.16;4202325;28;5836;-64
2022/12/21 08:16:33;;;;;;;;;;;;;;;12.97;66.84;97048.00;4201755;28;5788;-64
2022/12/21 08:18:37;;;;;;;;;;;;;;;12.97;67.05;97042.69;4226693;28;5606;-65
2022/12/21 08:20:44;;;;;;;;;;;;;;;12.95;67.06;97046.59;4218896;28;5689;-64
2022/12/21 08:22:47;;;;;;;;;;;;;;;12.94;67.25;97048.41;4235614;28;5598;-65
2022/12/21 08:24:50;;;;;;;;;;;;;;;12.94;66.80;97050.25;4235926;28;5677;-64
2022/12/21 08:26:53;;;;;;;;;;;;;;;12.93;66.95;97040.66;4223069;28;5806;-64
2022/12/21 08:28:58;;;;;;;;;;;;;;;12.93;66.96;97038.00;4211503;28;5602;-66
2022/12/21 08:31:04;;;;;;;;;;;;;;;12.90;66.79;97052.47;4214907;28;5617;-66
2022/12/21 08:33:07;;;;;;;;;;;;;;;12.88;67.19;97053.69;4213820;28;5280;-66
2022/12/21 08:35:10;;;;;;;;;;;;;;;12.88;67.19;97054.53;4216367;28;5628;-65
2022/12/21 08:37:13;;;;;;;;;;;;;;;12.85;67.20;97051.47;4216469;28;5605;-65
2022/12/21 08:39:16;;;;;;;;;;;;;;;12.86;67.29;97061.06;4216561;28;6326;-65
2022/12/21 08:41:19;;;;;;;;;;;;;;;12.89;67.16;97066.75;4216656;28;5620;-65
2022/12/21 08:43:22;;;;;;;;;;;;;;;12.89;66.95;97066.75;4213418;28;5737;-65
2022/12/21 08:45:26;;;;;;;;;;;;;;;12.91;66.95;97071.88;4214731;28;5623;-65
2022/12/21 08:47:29;;;;;;;;;;;;;;;12.92;66.82;97071.69;4214781;28;5710;-65
2022/12/21 08:49:31;;;;;;;;;;;;;;;12.94;66.66;97071.50;4217000;28;5613;-65
2022/12/21 08:51:35;;;;;;;;;;;;;;;12.96;67.09;97072.91;4215463;28;6477;-65
2022/12/21 08:53:38;;;;;;;;;;;;;;;12.98;66.80;97075.38;4208581;28;5787;-66
2022/12/21 08:55:41;;;;;;;;;;;;;;;12.98;66.89;97072.72;4218259;28;5616;-66
2022/12/21 08:57:44;;;;;;;;;;;;;;;12.98;66.65;97081.50;4216399;28;5601;-66
2022/12/21 08:59:46;;;;;;;;;;;;;;;12.99;66.89;97084.97;4209805;28;6302;-66
2022/12/21 09:01:53;;;;;;;;;;;;;;;12.98;66.80;97075.38;4216051;28;5617;-66
2022/12/21 09:03:56;;;;;;;;;;;;;;;12.98;66.90;97085.97;4216220;28;5217;-66
2022/12/21 09:06:02;;;;;;;;;;;;;;;12.98;66.86;97083.31;4217436;28;7679;-66
2022/12/21 09:08:11;;;;;;;;;;;;;;;12.99;66.77;97088.44;4209628;28;5688;-67
2022/12/21 09:10:13;;;;;;;;;;;;;;;12.97;66.65;97089.66;4214796;28;5621;-66
2022/12/21 09:12:16;;;;;;;;;;;;;;;12.96;66.78;97090.69;4209392;28;5718;-67
2022/12/21 09:14:19;;;;;;;;;;;;;;;12.98;66.96;97088.63;4210813;28;5690;-66
2022/12/21 09:16:24;;;;;;;;;;;;;;;13.01;66.75;97085.56;4213683;28;5794;-66
2022/12/21 09:18:28;;;;;;;;;;;;;;;13.00;66.67;97083.94;4212648;28;6552;-65
2022/12/21 09:20:30;;;;;;;;;;;;;;;12.97;66.60;97092.31;4226996;28;5717;-65
2022/12/21 09:22:33;;;;;;;;;;;;;;;12.96;66.85;97095.97;4213894;28;5677;-65
2022/12/21 09:24:36;;;;;;;;;;;;;;;12.96;66.99;97094.16;4217670;28;5628;-65
2022/12/21 09:26:41;;;;;;;;;;;;;;;12.98;66.99;97097.41;4204795;28;5730;-65
2022/12/21 09:28:43;;;;;;;;;;;;;;;13.00;66.94;97097.19;4200797;28;5801;-65
2022/12/21 09:30:46;;;;;;;;;;;;;;;13.00;67.06;97099.84;4200833;28;5697;-64
2022/12/21 09:32:49;;;;;;;;;;;;;;;12.99;66.80;97092.91;4213166;28;5791;-65
2022/12/21 09:34:53;;;;;;;;;;;;;;;12.97;66.78;97084.34;4214622;28;5723;-64
2022/12/21 09:37:00;;;;;;;;;;;;;;;12.98;66.64;97093.94;4214163;28;5628;-65
2022/12/21 09:39:22;;;;;;;;;;;;;;;12.99;66.57;97092.91;4210282;28;5609;-65
2022/12/21 09:41:44;;;;;;;;;;;;;;;13.00;66.62;97090.06;4213798;28;5625;-65
2022/12/21 09:43:59;;;;;;;;;;;;;;;13.02;66.49;97085.41;4194326;28;5726;-64
2022/12/21 09:46:05;;;;;;;;;;;;;;;13.04;66.86;97086.00;4233004;28;5700;-65
2022/12/21 09:48:13;;;;;;;;;;;;;;;13.05;66.84;97089.47;4234430;28;6335;-65
2022/12/21 09:50:23;;;;;;;;;;;;;;;13.07;66.30;97084.78;4202998;28;5706;-64
2022/12/21 09:52:30;;;;;;;;;;;;;;;13.08;66.58;97086.41;4234759;28;5720;-64
2022/12/21 09:54:36;;;;;;;;;;;;;;;13.10;66.51;97087.03;4227748;28;5677;-65
2022/12/21 09:56:43;;;;;;;;;;;;;;;13.11;66.46;97081.50;4200981;28;5718;-64
2022/12/21 09:58:48;;;;;;;;;;;;;;;13.12;66.32;97071.69;4211409;28;5605;-65
2022/12/21 10:00:59;;;;;;;;;;;;;;;13.13;66.58;97081.28;4222569;28;5750;-65
2022/12/21 10:03:25;;;;;;;;;;;;;;;13.16;66.29;97070.31;4201210;28;5686;-65
2022/12/21 10:05:49;;;;;;;;;;;;;;;13.18;66.35;97073.56;4201917;28;6669;-65
2022/12/21 10:08:23;;;;;;;;;;;;;;;13.18;66.53;97065.59;4217372;28;5614;-65
2022/12/21 10:10:35;;;;;;;;;;;;;;;13.21;66.23;97073.19;4200641;28;5694;-65
2022/12/21 10:12:48;;;;;;;;;;;;;;;13.21;66.27;97069.72;4213136;28;5620;-64
2022/12/21 10:15:04;;;;;;;;;;;;;;;13.23;66.44;97068.47;4211504;28;5763;-64
2022/12/21 10:17:29;;;;;;;;;;;;;;;13.21;66.41;97067.88;4208670;28;5675;-65
2022/12/21 10:20:02;;;;;;;;;;;;;;;13.26;66.12;97072.59;4204164;28;5636;-64
2022/12/21 10:22:14;;;;;;;;;;;;;;;13.25;66.21;97070.94;4208325;28;5625;-64
2022/12/21 10:24:23;;;;;;;;;;;;;;;13.27;66.18;97068.91;4210257;28;5624;-64
2022/12/21 10:26:27;;;;;;;;;;;;;;;13.27;66.29;97069.72;4211359;28;6349;-65
2022/12/21 10:28:40;;;;;;;;;;;;;;;13.26;66.41;97062.78;4228012;28;5710;-65
2022/12/21 10:30:49;;;;;;;;;;;;;;;13.27;66.16;97067.06;4227025;28;5860;-64
2022/12/21 10:32:52;;;;;;;;;;;;;;;13.27;66.24;97071.56;4234409;28;5649;-64
2022/12/21 10:34:55;;;;;;;;;;;;;;;13.24;66.13;97059.50;4220873;28;5690;-64
2022/12/21 10:37:01;;;;;;;;;;;;;;;13.26;66.43;97067.28;4217020;28;5709;-64
2022/12/21 10:39:05;;;;;;;;;;;;;;;13.26;66.20;97061.97;4216076;28;5599;-64
2022/12/21 10:41:13;;;;;;;;;;;;;;;13.25;66.23;97055.84;4209103;28;5608;-64
2022/12/21 10:43:16;;;;;;;;;;;;;;;13.25;66.46;97061.16;4216311;28;5605;-65
2022/12/21 10:45:22;;;;;;;;;;;;;;;13.24;66.09;97064.81;4220200;28;5622;-65
2022/12/21 10:47:28;;;;;;;;;;;;;;;13.25;66.48;97068.28;4210871;28;5891;-65
2022/12/21 10:49:35;;;;;;;;;;;;;;;13.23;66.05;97068.47;4200449;28;6524;-65
2022/12/21 10:51:38;;;;;;;;;;;;;;;13.21;66.14;97065.22;4200208;28;5690;-65
2022/12/21 10:53:58;;;;;;;;;;;;;;;13.21;66.06;97059.09;4203522;28;5709;-65
2022/12/21 10:56:03;;;;;;;;;;;;;;;13.21;66.17;97067.06;4203724;28;5686;-65
2022/12/21 10:58:17;;;;;;;;;;;;;;;13.19;66.20;97064.59;4236553;28;5586;-64
2022/12/21 11:00:25;;;;;;;;;;;;;;;13.19;66.21;97056.66;4220289;28;5714;-65
2022/12/21 11:02:35;;;;;;;;;;;;;;;13.20;66.30;97063.59;4237194;28;5843;-65
2022/12/21 11:04:38;;;;;;;;;;;;;;;13.22;66.33;97061.53;4237060;28;5601;-66
2022/12/21 11:06:56;;;;;;;;;;;;;;;13.25;66.02;97062.97;4236602;28;5614;-65
2022/12/21 11:08:58;;;;;;;;;;;;;;;13.26;65.91;97065.44;4236973;28;5673;-65
2022/12/21 11:11:03;;;;;;;;;;;;;;;13.28;66.09;97060.75;4237133;28;5633;-66
2022/12/21 11:13:06;;;;;;;;;;;;;;;13.28;66.04;97060.75;4203818;28;5785;-65
2022/12/21 11:15:11;;;;;;;;;;;;;;;13.30;66.08;97058.69;4220280;28;5610;-65
2022/12/21 11:17:34;;;;;;;;;;;;;;;13.30;66.15;97057.88;4200867;28;5660;-65
2022/12/21 11:19:38;;;;;;;;;;;;;;;13.29;66.00;97053.59;4181898;28;5678;-65
2022/12/21 11:21:47;;;;;;;;;;;;;;;13.30;65.72;97055.22;4187761;28;6393;-66
2022/12/21 11:23:56;;;;;;;;;;;;;;;13.29;65.90;97057.06;4182467;28;5682;-67
2022/12/21 11:26:00;;;;;;;;;;;;;;;13.29;66.03;97051.75;4177823;28;5137;-66
2022/12/21 11:28:05;;;;;;;;;;;;;;;13.31;65.89;97052.38;4185630;28;5682;-66
2022/12/21 11:30:17;;;;;;;;;;;;;;;13.32;65.70;97054.00;4182211;28;6358;-67
2022/12/21 11:32:22;;;;;;;;;;;;;;;13.32;66.05;97047.88;4184465;28;5901;-67
2022/12/21 11:34:35;;;;;;;;;;;;;;;13.33;65.66;97045.00;4177466;28;5714;-67
2022/12/21 11:36:56;;;;;;;;;;;;;;;13.33;65.66;97038.88;4184013;28;6346;-67
2022/12/21 11:38:58;;;;;;;;;;;;;;;13.34;65.60;97051.94;4182706;28;5678;-68
2022/12/21 11:41:01;;;;;;;;;;;;;;;13.34;65.98;97043.97;4176498;28;5701;-68
2022/12/21 11:43:15;;;;;;;;;;;;;;;13.33;65.97;97042.34;4184894;28;5678;-68
2022/12/21 11:45:22;;;;;;;;;;;;;;;13.31;65.74;97038.28;4180371;28;6486;-68
2022/12/21 11:47:36;;;;;;;;;;;;;;;13.30;65.82;97037.44;4172521;28;5690;-66
2022/12/21 11:50:15;;;;;;;;;;;;;;;13.31;66.15;97032.97;4178253;28;5765;-67
2022/12/21 11:52:31;;;;;;;;;;;;;;;13.32;65.86;97032.75;4178709;28;5695;-66
2022/12/21 11:54:47;;;;;;;;;;;;;;;13.32;65.80;97039.91;4184010;28;5971;-68
2022/12/21 11:57:00;;;;;;;;;;;;;;;13.31;65.77;97033.78;4183378;28;5794;-68
2022/12/21 11:59:23;;;;;;;;;;;;;;;13.32;66.04;97030.09;4182063;28;5741;-68
2022/12/21 12:01:42;;;;;;;;;;;;;;;13.32;65.90;97030.09;4181065;28;6367;-68
2022/12/21 12:04:13;;;;;;;;;;;;;;;13.32;66.09;97034.59;4185177;28;5756;-67
2022/12/21 12:06:38;;;;;;;;;;;;;;;13.29;65.83;97024.38;4180783;28;5674;-68
2022/12/21 12:09:00;;;;;;;;;;;;;;;13.26;65.84;97022.97;4182286;28;5732;-67
2022/12/21 12:11:17;;;;;;;;;;;;;;;13.24;65.92;97024.16;4187079;28;5685;-67
2022/12/21 12:13:32;;;;;;;;;;;;;;;13.22;65.90;97013.75;4192235;28;5122;-68
2022/12/21 12:15:44;;;;;;;;;;;;;;;13.22;66.01;97018.25;4192864;28;6317;-67
2022/12/21 12:18:02;;;;;;;;;;;;;;;13.25;66.12;97023.13;4218900;28;5807;-68
2022/12/21 12:20:17;;;;;;;;;;;;;;;13.25;66.12;97021.34;4217939;28;5582;-66
2022/12/21 12:22:41;;;;;;;;;;;;;;;13.25;65.97;97020.50;4232320;28;5630;-68
2022/12/21 12:25:01;;;;;;;;;;;;;;;13.25;66.17;97018.69;4215212;28;5783;-67
2022/12/21 12:27:17;;;;;;;;;;;;;;;13.28;66.38;97020.91;4214341;28;5812;-66
2022/12/21 12:29:33;;;;;;;;;;;;;;;13.27;66.35;97013.97;4202109;28;5150;-67
2022/12/21 12:31:50;;;;;;;;;;;;;;;13.29;66.18;97019.91;4215206;28;5617;-67
2022/12/21 12:34:15;;;;;;;;;;;;;;;13.30;66.29;97013.56;4210111;28;5629;-68
2022/12/21 12:36:31;;;;;;;;;;;;;;;13.30;66.06;96999.47;4211060;28;5084;-68
2022/12/21 12:38:42;;;;;;;;;;;;;;;13.31;66.32;97007.22;4211106;28;5680;-67
2022/12/21 12:41:04;;;;;;;;;;;;;;;13.30;66.30;97010.91;4215963;28;5621;-67
2022/12/21 12:43:17;;;;;;;;;;;;;;;13.30;66.41;97013.56;4215553;28;5670;-67
2022/12/21 12:45:32;;;;;;;;;;;;;;;13.31;66.00;97007.22;4213034;28;5616;-67
2022/12/21 12:47:44;;;;;;;;;;;;;;;13.33;66.29;97015.78;4211272;28;5622;-67
2022/12/21 12:50:01;;;;;;;;;;;;;;;13.33;66.36;97010.50;4212187;28;7363;-67
2022/12/21 12:52:21;;;;;;;;;;;;;;;13.34;66.24;97006.81;4211308;28;5638;-67
2022/12/21 12:54:35;;;;;;;;;;;;;;;13.36;66.29;97009.25;4216107;28;5630;-67
2022/12/21 12:56:51;;;;;;;;;;;;;;;13.35;66.12;97008.44;4215581;28;5707;-68
2022/12/21 12:59:02;;;;;;;;;;;;;;;13.35;66.17;96997.81;4213602;28;6337;-68
2022/12/21 13:01:14;;;;;;;;;;;;;;;13.36;65.94;96999.47;4201757;28;5836;-67
2022/12/21 13:03:29;;;;;;;;;;;;;;;13.36;66.09;96994.16;4215449;28;5620;-68
2022/12/21 13:05:43;;;;;;;;;;;;;;;13.35;66.23;96995.16;4215472;28;5640;-68
2022/12/21 13:07:56;;;;;;;;;;;;;;;13.37;66.20;96982.53;4213882;28;5617;-67
2022/12/21 13:10:08;;;;;;;;;;;;;;;13.40;66.18;96984.75;4212085;28;5621;-68
2022/12/21 13:12:15;;;;;;;;;;;;;;;13.41;66.05;96980.25;4212654;28;5739;-67
2022/12/21 13:14:26;;;;;;;;;;;;;;;13.42;66.00;96978.41;4216406;28;5609;-67
2022/12/21 13:16:43;;;;;;;;;;;;;;;13.42;66.15;96967.78;4216898;28;5884;-68
2022/12/21 13:18:52;;;;;;;;;;;;;;;13.41;66.23;96966.97;4216335;28;5696;-68
2022/12/21 13:20:59;;;;;;;;;;;;;;;13.42;66.28;96965.16;4210443;28;5609;-68
2022/12/21 13:23:05;;;;;;;;;;;;;;;13.42;66.12;96959.81;4216030;28;5722;-68
2022/12/21 13:25:18;;;;;;;;;;;;;;;13.43;66.13;96961.47;4213066;28;5819;-68
2022/12/21 13:27:25;;;;;;;;;;;;;;;13.44;66.12;96960.44;4214997;28;5824;-68
2022/12/21 13:29:35;;;;;;;;;;;;;;;13.45;66.30;96951.44;4212464;28;5845;-68
2022/12/21 13:31:42;;;;;;;;;;;;;;;13.43;66.05;96945.53;4214499;28;5617;-68
2022/12/21 13:33:51;;;;;;;;;;;;;;;13.40;66.04;96950.22;4214288;28;5703;-68
2022/12/21 13:36:02;;;;;;;;;;;;;;;13.36;66.22;96941.06;4214356;28;5605;-68
2022/12/21 13:38:10;;;;;;;;;;;;;;;13.33;66.27;96943.28;4215526;28;5633;-68
2022/12/21 13:40:18;;;;;;;;;;;;;;;13.33;66.62;96940.63;4211747;28;5593;-67
2022/12/21 13:42:27;;;;;;;;;;;;;;;13.33;66.62;96935.31;4214922;28;5609;-68
2022/12/21 13:44:35;;;;;;;;;;;;;;;13.33;66.64;96927.34;4216015;28;5604;-68
2022/12/21 13:46:42;;;;;;;;;;;;;;;13.32;66.36;96931.84;4214822;28;5625;-68
2022/12/21 13:48:51;;;;;;;;;;;;;;;13.26;66.57;96918.59;4215542;28;5792;-68
2022/12/21 13:51:06;;;;;;;;;;;;;;;13.23;66.69;96927.78;4213630;28;5628;-68
2022/12/21 13:53:19;;;;;;;;;;;;;;;13.20;66.87;96928.19;4212784;28;5624;-68
2022/12/21 13:55:41;;;;;;;;;;;;;;;13.21;66.59;96932.47;4210405;28;5804;-73
2022/12/21 13:58:00;;;;;;;;;;;;;;;13.19;66.85;96931.88;4209239;28;6302;-73
2022/12/21 14:00:13;;;;;;;;;;;;;;;13.13;66.55;96930.00;4208966;28;5602;-74
2022/12/21 14:02:32;;;;;;;;;;;;;;;13.12;66.94;96931.03;4211120;28;5684;-74
2022/12/21 14:04:46;;;;;;;;;;;;;;;13.10;66.68;96925.94;4209952;28;5693;-74
2022/12/21 14:07:17;;;;;;;;;;;;;;;13.10;66.70;96927.75;4212480;28;6392;-74
2022/12/21 14:09:33;;;;;;;;;;;;;;;13.10;66.99;96930.41;4207383;28;5707;-74
2022/12/21 14:12:11;;;;;;;;;;;;;;;13.06;66.83;96930.03;4200571;28;5760;-73
2022/12/21 14:14:46;;;;;;;;;;;;;;;13.04;66.82;96936.56;4223613;28;5605;-73
2022/12/21 14:16:58;;;;;;;;;;;;;;;13.04;66.82;96936.56;4211460;28;5830;-74
2022/12/21 14:19:03;;;;;;;;;;;;;;;13.07;66.91;96952.06;4217352;28;5687;-72
2022/12/21 14:21:21;;;;;;;;;;;;;;;13.08;66.69;96935.94;4208838;28;5745;-74
2022/12/21 14:23:27;;;;;;;;;;;;;;;13.09;66.73;96942.06;4208765;28;6294;-73
2022/12/21 14:25:38;;;;;;;;;;;;;;;13.08;66.87;96943.91;4212449;28;5624;-74
2022/12/21 14:27:42;;;;;;;;;;;;;;;13.12;67.06;96941.63;4222984;28;5675;-74
2022/12/21 14:29:46;;;;;;;;;;;;;;;13.14;66.55;96947.59;4217726;28;5620;-74
2022/12/21 14:31:52;;;;;;;;;;;;;;;13.17;66.67;96956.97;4206797;28;6355;-74
2022/12/21 14:33:59;;;;;;;;;;;;;;;13.19;66.95;96958.44;4227307;28;5665;-73
2022/12/21 14:36:29;;;;;;;;;;;;;;;13.22;66.90;96951.88;4203703;28;5631;-72
2022/12/21 14:38:32;;;;;;;;;;;;;;;13.22;66.63;96955.34;4211726;28;5744;-73
2022/12/21 14:40:57;;;;;;;;;;;;;;;13.25;66.86;96946.16;4226132;28;5696;-73
2022/12/21 14:43:01;;;;;;;;;;;;;;;13.27;66.67;96952.09;4219156;28;5610;-72
2022/12/21 14:45:18;;;;;;;;;;;;;;;13.27;66.94;96952.91;4212723;28;5722;-73
2022/12/21 14:47:23;;;;;;;;;;;;;;;13.29;66.56;96953.50;4211891;28;5632;-73
2022/12/21 14:49:29;;;;;;;;;;;;;;;13.30;66.77;96957.00;4221445;28;5665;-74
2022/12/21 14:51:50;;;;;;;;;;;;;;;13.28;66.58;96954.53;4223247;28;5598;-73
2022/12/21 14:54:07;;;;;;;;;;;;;;;13.32;66.75;96963.72;4202017;28;5628;-73
2022/12/21 14:56:13;;;;;;;;;;;;;;;13.32;66.66;96952.28;4212045;28;5708;-74
2022/12/21 14:58:19;;;;;;;;;;;;;;;13.34;66.67;96960.84;4211753;28;5544;-73
2022/12/21 15:00:23;;;;;;;;;;;;;;;13.33;66.91;96957.38;4220864;28;5618;-67
2022/12/21 15:02:29;;;;;;;;;;;;;;;13.35;66.69;96965.94;4216279;28;7827;-68
2022/12/21 15:04:34;;;;;;;;;;;;;;;13.37;66.92;96971.09;4215360;28;5678;-68
2022/12/21 15:06:40;;;;;;;;;;;;;;;13.38;66.73;96964.75;4216151;28;5680;-68
2022/12/21 15:08:52;;;;;;;;;;;;;;;13.39;66.79;96961.88;4214693;28;5874;-69
2022/12/21 15:10:58;;;;;;;;;;;;;;;13.38;66.53;96968.22;4214658;28;5695;-69
2022/12/21 15:13:01;;;;;;;;;;;;;;;13.39;66.75;96967.19;4216550;28;5787;-69
2022/12/21 15:15:23;;;;;;;;;;;;;;;13.38;66.71;96967.41;4213635;28;5602;-68
2022/12/21 15:17:28;;;;;;;;;;;;;;;13.38;66.57;96965.56;4209735;28;5784;-68
2022/12/21 15:19:48;;;;;;;;;;;;;;;13.37;66.77;96961.28;4215941;28;5165;-68
2022/12/21 15:22:26;;;;;;;;;;;;;;;13.37;66.80;96961.28;4214640;28;7664;-68
2022/12/21 15:24:32;;;;;;;;;;;;;;;13.37;66.56;96960.47;4214302;28;5850;-68
2022/12/21 15:26:40;;;;;;;;;;;;;;;13.35;66.57;96952.69;4217016;28;5628;-68
2022/12/21 15:28:48;;;;;;;;;;;;;;;13.35;66.83;96955.31;4214342;28;5616;-68
2022/12/21 15:30:54;;;;;;;;;;;;;;;13.35;66.74;96960.63;4213788;28;6463;-68
2022/12/21 15:33:01;;;;;;;;;;;;;;;13.35;66.88;96958.00;4212046;28;5644;-68
2022/12/21 15:35:09;;;;;;;;;;;;;;;13.34;66.67;96959.00;4215544;28;6306;-69
2022/12/21 15:37:19;;;;;;;;;;;;;;;13.35;66.71;96943.91;4211541;28;5640;-69
2022/12/21 15:39:27;;;;;;;;;;;;;;;13.37;66.54;96947.19;4205605;28;5604;-68
2022/12/21 15:41:41;;;;;;;;;;;;;;;13.34;66.71;96951.03;4213893;28;5617;-68
2022/12/21 15:43:48;;;;;;;;;;;;;;;13.36;66.56;96956.16;4217749;28;5815;-68
2022/12/21 15:45:58;;;;;;;;;;;;;;;13.36;66.69;96957.00;4219737;28;5608;-68
2022/12/21 15:48:06;;;;;;;;;;;;;;;13.38;66.49;96951.47;4209557;28;5663;-68
2022/12/21 15:50:15;;;;;;;;;;;;;;;13.38;66.83;96944.31;4213202;28;5641;-67
2022/12/21 15:52:30;;;;;;;;;;;;;;;13.37;66.56;96953.31;4213475;28;5655;-68
2022/12/21 15:54:44;;;;;;;;;;;;;;;13.34;66.40;96942.25;4207256;28;5703;-67
2022/12/21 15:56:49;;;;;;;;;;;;;;;13.37;66.58;96950.66;4224765;28;5717;-67
2022/12/21 15:58:52;;;;;;;;;;;;;;;13.36;66.42;96946.38;4219099;28;5609;-67
2022/12/21 16:01:04;;;;;;;;;;;;;;;13.37;66.45;96957.81;4227260;28;5605;-68
2022/12/21 16:03:12;;;;;;;;;;;;;;;13.36;66.74;96959.66;4218336;28;5766;-67
2022/12/21 16:05:19;;;;;;;;;;;;;;;13.36;66.72;96964.97;4194894;28;5818;-68
2022/12/21 16:07:22;;;;;;;;;;;;;;;13.34;66.39;96964.31;4215252;28;5816;-68
2022/12/21 16:09:29;;;;;;;;;;;;;;;13.35;66.33;96970.44;4202442;28;6317;-68
2022/12/21 16:11:36;;;;;;;;;;;;;;;13.34;66.46;96960.84;4210376;28;5628;-69
2022/12/21 16:14:02;;;;;;;;;;;;;;;13.35;66.48;96965.13;4233050;28;5676;-68
2022/12/21 16:16:15;;;;;;;;;;;;;;;13.34;66.67;96964.31;4219836;28;5698;-68
2022/12/21 16:18:20;;;;;;;;;;;;;;;13.35;66.58;96970.44;4210192;28;6295;-68
2022/12/21 16:20:23;;;;;;;;;;;;;;;13.34;66.46;96974.13;4217112;28;5613;-68
2022/12/21 16:22:32;;;;;;;;;;;;;;;13.34;66.57;96980.25;4220062;28;6192;-67
2022/12/21 16:24:39;;;;;;;;;;;;;;;13.34;66.55;96982.09;4212867;28;5609;-68
2022/12/21 16:27:08;;;;;;;;;;;;;;;13.33;66.40;96986.59;4209761;28;5707;-68
2022/12/21 16:29:19;;;;;;;;;;;;;;;13.31;66.30;96987.81;4210236;28;6095;-68
2022/12/21 16:31:44;;;;;;;;;;;;;;;13.27;66.47;96998.03;4208273;28;5737;-68
2022/12/21 16:33:54;;;;;;;;;;;;;;;13.25;66.44;96996.59;4218191;28;5612;-68
2022/12/21 16:35:58;;;;;;;;;;;;;;;13.23;66.50;96996.81;4206799;28;5613;-69
2022/12/21 16:38:02;;;;;;;;;;;;;;;13.19;66.52;96990.28;4208304;28;5819;-68
2022/12/21 16:40:16;;;;;;;;;;;;;;;13.20;66.61;96991.09;4214230;28;5633;-68
2022/12/21 16:42:19;;;;;;;;;;;;;;;13.22;66.58;97004.97;4209394;28;5624;-69
2022/12/21 16:44:38;;;;;;;;;;;;;;;13.22;66.35;96999.66;4215481;28;6299;-68
2022/12/21 16:47:16;;;;;;;;;;;;;;;13.21;66.57;97006.00;4210743;28;5613;-68
2022/12/21 16:49:32;;;;;;;;;;;;;;;13.20;66.24;97010.50;4213971;28;5609;-68
2022/12/21 16:51:40;;;;;;;;;;;;;;;13.19;66.37;97014.16;4206780;28;5652;-69
2022/12/21 16:53:46;;;;;;;;;;;;;;;13.19;66.33;97005.38;4214337;28;5605;-68
2022/12/21 16:56:10;;;;;;;;;;;;;;;13.17;66.62;96999.44;4209769;28;5696;-68
2022/12/21 16:58:17;;;;;;;;;;;;;;;13.16;66.42;96998.63;4222414;28;5617;-68
2022/12/21 17:00:24;;;;;;;;;;;;;;;13.15;66.55;97002.31;4211264;28;5727;-68
2022/12/21 17:02:35;;;;;;;;;;;;;;;13.16;66.58;97008.44;4205999;28;5635;-68
2022/12/21 17:04:39;;;;;;;;;;;;;;;13.15;66.55;96997.00;4206472;28;5624;-69
2022/12/21 17:06:45;;;;;;;;;;;;;;;13.15;66.53;97002.31;4210732;28;5854;-68
2022/12/21 17:08:47;;;;;;;;;;;;;;;13.15;66.48;96993.53;4211839;28;5667;-67
2022/12/21 17:11:01;;;;;;;;;;;;;;;13.12;66.16;96997.38;4213773;28;5795;-67
2022/12/21 17:13:08;;;;;;;;;;;;;;;13.10;66.26;97000.25;4216920;28;5092;-68
2022/12/21 17:15:28;;;;;;;;;;;;;;;13.07;66.23;96989.22;4210972;28;7702;-68
2022/12/21 17:17:43;;;;;;;;;;;;;;;13.00;66.43;96989.22;4210989;28;5732;-68
2022/12/21 17:20:15;;;;;;;;;;;;;;;12.97;66.35;96994.94;4213737;28;5841;-65
2022/12/21 17:22:20;;;;;;;;;;;;;;;13.00;66.60;96993.72;4210204;28;5621;-64
2022/12/21 17:24:32;;;;;;;;;;;;;;;13.01;66.23;96995.34;4214336;28;5600;-65
2022/12/21 17:26:39;;;;;;;;;;;;;;;13.00;66.46;96993.72;4203890;28;5787;-66
2022/12/21 17:28:43;;;;;;;;;;;;;;;12.97;66.31;96994.94;4217784;28;5598;-65
2022/12/21 17:30:49;;;;;;;;;;;;;;;12.98;66.61;96996.56;4212199;28;5624;-65
2022/12/21 17:32:54;;;;;;;;;;;;;;;12.99;66.22;96997.38;4203519;28;5685;-65
2022/12/21 17:34:57;;;;;;;;;;;;;;;12.96;66.29;97000.44;4200583;28;6445;-65
2022/12/21 17:36:59;;;;;;;;;;;;;;;12.96;66.57;97003.09;4212781;28;6468;-64
2022/12/21 17:39:12;;;;;;;;;;;;;;;12.96;66.53;97003.09;4216049;28;5848;-66